createdAt,value
2023-05-10T00:00:18.982Z,16.12
2023-05-10T00:02:47.150Z,16.20
2023-05-10T00:05:15.099Z,16.10
2023-05-10T00:07:45.683Z,16.15
2023-05-10T00:10:14.316Z,16.06
2023-05-10T00:12:44.146Z,16.31
2023-05-10T00:15:13.196Z,16.15
2023-05-10T00:17:41.419Z,16.13
2023-05-10T00:20:10.376Z,16.06
2023-05-10T00:22:38.303Z,16.10
2023-05-10T00:25:07.454Z,16.32
2023-05-10T00:27:35.565Z,15.87
2023-05-10T00:30:05.468Z,15.96
2023-05-10T00:32:33.445Z,15.97
2023-05-10T00:35:01.443Z,15.97
2023-05-10T00:37:29.354Z,15.75
2023-05-10T00:39:57.383Z,15.87
2023-05-10T00:42:25.479Z,15.51
2023-05-10T00:44:55.716Z,15.34
2023-05-10T00:47:25.104Z,15.57
2023-05-10T00:49:53.631Z,15.51
2023-05-10T00:52:21.802Z,15.56
2023-05-10T00:54:50.173Z,15.22
2023-05-10T00:57:18.325Z,15.20
2023-05-10T00:59:46.358Z,15.28
2023-05-10T01:02:15.382Z,15.36
2023-05-10T01:04:45.297Z,15.40
2023-05-10T01:07:13.204Z,15.36
2023-05-10T01:09:41.319Z,15.05
2023-05-10T01:12:09.566Z,15.29
2023-05-10T01:14:38.306Z,14.93
2023-05-10T01:17:08.065Z,14.91
2023-05-10T01:19:43.724Z,14.96
2023-05-10T01:22:44.188Z,14.76
2023-05-10T01:25:45.815Z,15.07
2023-05-10T01:28:50.256Z,15.17
2023-05-10T01:31:32.902Z,15.23
2023-05-10T01:34:07.278Z,14.68
2023-05-10T01:36:42.360Z,14.84
2023-05-10T01:39:18.027Z,14.74
2023-05-10T01:41:53.162Z,14.76
2023-05-10T01:44:29.322Z,14.90
2023-05-10T01:47:06.561Z,14.53
2023-05-10T01:49:42.543Z,14.66
2023-05-10T01:52:12.727Z,14.79
2023-05-10T01:54:45.169Z,14.82
2023-05-10T01:57:15.876Z,14.55
2023-05-10T01:59:47.517Z,14.47
2023-05-10T02:02:17.233Z,14.79
2023-05-10T02:04:49.642Z,14.38
2023-05-10T02:07:18.632Z,14.54
2023-05-10T02:09:49.054Z,14.64
2023-05-10T02:12:18.124Z,14.36
2023-05-10T02:14:47.313Z,14.47
2023-05-10T02:17:16.450Z,14.53
2023-05-10T02:19:46.335Z,14.43
2023-05-10T02:22:17.389Z,14.47
2023-05-10T02:24:47.121Z,14.56
2023-05-10T02:27:17.798Z,14.48
2023-05-10T02:29:46.935Z,14.31
2023-05-10T02:32:16.606Z,14.12
2023-05-10T02:34:46.572Z,14.34
2023-05-10T02:37:19.353Z,14.36
2023-05-10T02:39:48.978Z,14.05
2023-05-10T02:42:19.892Z,14.23
2023-05-10T02:44:51.139Z,14.29
2023-05-10T02:47:19.929Z,14.23
2023-05-10T02:49:48.226Z,14.44
2023-05-10T02:52:24.254Z,14.32
2023-05-10T02:54:56.633Z,14.12
2023-05-10T02:57:29.408Z,14.21
2023-05-10T02:59:57.391Z,14.21
2023-05-10T03:02:25.485Z,14.13
2023-05-10T03:04:53.382Z,13.90
2023-05-10T03:07:23.300Z,13.99
2023-05-10T03:09:51.815Z,13.94
2023-05-10T03:12:29.359Z,13.80
2023-05-10T03:15:04.408Z,13.80
2023-05-10T03:17:38.442Z,13.79
2023-05-10T03:20:08.676Z,13.84
2023-05-10T03:22:40.419Z,13.92
2023-05-10T03:25:12.580Z,13.81
2023-05-10T03:27:45.628Z,13.88
2023-05-10T03:30:15.182Z,13.48
2023-05-10T03:32:43.423Z,13.75
2023-05-10T03:35:12.637Z,13.78
2023-05-10T03:37:42.094Z,13.66
2023-05-10T03:40:11.934Z,13.61
2023-05-10T03:42:42.485Z,13.78
2023-05-10T03:45:11.686Z,13.79
2023-05-10T03:47:39.599Z,13.82
2023-05-10T03:50:08.800Z,13.78
2023-05-10T03:52:36.861Z,13.71
2023-05-10T03:55:07.308Z,13.92
2023-05-10T03:57:35.725Z,13.75
2023-05-10T04:00:03.785Z,13.62
2023-05-10T04:02:42.410Z,13.67
2023-05-10T04:05:15.792Z,13.62
2023-05-10T04:07:45.250Z,13.54
2023-05-10T04:10:14.963Z,13.78
2023-05-10T04:12:42.988Z,13.73
2023-05-10T04:15:11.437Z,13.92
2023-05-10T04:17:39.342Z,13.83
2023-05-10T04:20:08.659Z,13.75
2023-05-10T04:22:36.727Z,13.73
2023-05-10T04:25:05.363Z,13.93
2023-05-10T04:27:34.732Z,13.84
2023-05-10T04:30:02.935Z,13.90
2023-05-10T04:32:30.858Z,13.79
2023-05-10T04:34:58.814Z,13.85
2023-05-10T04:37:26.718Z,13.99
2023-05-10T04:39:54.549Z,14.02
2023-05-10T04:42:22.362Z,14.04
2023-05-10T04:44:52.843Z,14.26
2023-05-10T04:47:20.920Z,14.28
2023-05-10T04:49:48.843Z,14.33
2023-05-10T04:52:18.528Z,14.37
2023-05-10T04:54:46.429Z,14.17
2023-05-10T04:57:14.260Z,14.28
2023-05-10T04:59:42.127Z,14.17
2023-05-10T05:02:11.379Z,14.31
2023-05-10T05:04:39.229Z,14.33
2023-05-10T05:07:07.075Z,14.42
2023-05-10T05:09:34.950Z,14.61
2023-05-10T05:12:02.810Z,14.54
2023-05-10T05:14:30.694Z,14.92
2023-05-10T05:16:58.677Z,14.67
2023-05-10T05:19:28.359Z,14.87
2023-05-10T05:21:56.207Z,14.96
2023-05-10T05:24:24.123Z,15.07
2023-05-10T05:26:51.971Z,15.14
2023-05-10T05:29:19.896Z,15.46
2023-05-10T05:31:47.822Z,15.38
2023-05-10T05:34:15.684Z,15.86
2023-05-10T05:36:44.898Z,15.48
2023-05-10T05:39:12.754Z,15.93
2023-05-10T05:41:40.612Z,15.82
2023-05-10T05:44:08.549Z,15.97
2023-05-10T05:46:36.433Z,16.21
2023-05-10T05:49:04.402Z,16.10
2023-05-10T05:51:33.208Z,16.16
2023-05-10T05:54:02.691Z,16.37
2023-05-10T05:56:30.687Z,16.47
2023-05-10T05:58:58.516Z,16.45
2023-05-10T06:01:26.381Z,16.56
2023-05-10T06:03:54.299Z,16.18
2023-05-10T06:06:22.203Z,16.29
2023-05-10T06:08:50.054Z,16.20
2023-05-10T06:11:19.281Z,16.42
2023-05-10T06:13:47.163Z,16.76
2023-05-10T06:16:15.313Z,16.65
2023-05-10T06:18:43.182Z,16.79
2023-05-10T06:21:11.056Z,16.73
2023-05-10T06:23:38.918Z,16.80
2023-05-10T06:26:06.806Z,16.81
2023-05-10T06:28:36.092Z,16.91
2023-05-10T06:31:03.962Z,17.33
2023-05-10T06:33:32.112Z,17.13
2023-05-10T06:36:00.042Z,16.91
2023-05-10T06:38:28.282Z,17.38
2023-05-10T06:40:56.217Z,17.88
2023-05-10T06:43:24.363Z,17.61
2023-05-10T06:45:53.633Z,17.93
2023-05-10T06:48:21.524Z,17.69
2023-05-10T06:50:49.416Z,17.84
2023-05-10T06:53:17.299Z,18.01
2023-05-10T06:55:45.173Z,17.99
2023-05-10T06:58:13.544Z,18.10
2023-05-10T07:00:44.550Z,18.16
2023-05-10T07:03:13.894Z,18.26
2023-05-10T07:05:41.816Z,17.99
2023-05-10T07:08:10.037Z,18.29
2023-05-10T07:10:37.960Z,18.53
2023-05-10T07:13:05.908Z,18.20
2023-05-10T07:15:34.469Z,18.56
2023-05-10T07:18:02.395Z,17.96
2023-05-10T07:20:31.665Z,17.99
2023-05-10T07:22:59.472Z,18.31
2023-05-10T07:25:27.327Z,17.84
2023-05-10T07:27:55.222Z,18.36
2023-05-10T07:30:23.218Z,18.58
2023-05-10T07:32:51.178Z,18.42
2023-05-10T07:35:19.255Z,18.59
2023-05-10T07:37:48.521Z,18.69
2023-05-10T07:40:16.425Z,18.66
2023-05-10T07:42:44.290Z,18.83
2023-05-10T07:45:12.389Z,18.84
2023-05-10T07:47:40.293Z,19.10
2023-05-10T07:50:09.766Z,19.17
2023-05-10T07:52:37.616Z,19.27
2023-05-10T07:55:08.362Z,18.95
2023-05-10T07:57:36.440Z,19.26
2023-05-10T08:00:04.812Z,19.22
2023-05-10T08:02:41.267Z,19.57
2023-05-10T08:05:10.487Z,19.40
2023-05-10T08:07:38.476Z,19.07
2023-05-10T08:10:09.619Z,19.09
2023-05-10T08:12:37.585Z,19.09
2023-05-10T08:15:06.935Z,19.62
2023-05-10T08:17:35.028Z,19.08
2023-05-10T08:20:03.509Z,19.60
2023-05-10T08:22:31.713Z,19.91
2023-05-10T08:24:59.787Z,19.62
2023-05-10T08:27:29.253Z,19.69
2023-05-10T08:29:57.454Z,20.05
2023-05-10T08:32:25.658Z,19.98
2023-05-10T08:34:53.701Z,20.08
2023-05-10T08:37:21.725Z,20.04
2023-05-10T08:39:49.934Z,20.18
2023-05-10T08:42:23.091Z,20.31
2023-05-10T08:44:53.114Z,20.30
2023-05-10T08:47:21.916Z,20.33
2023-05-10T08:49:51.990Z,20.45
2023-05-10T08:52:20.804Z,20.61
2023-05-10T08:54:49.142Z,20.32
2023-05-10T08:57:17.065Z,20.71
2023-05-10T08:59:45.224Z,20.49
2023-05-10T09:02:18.575Z,20.26
2023-05-10T09:04:46.837Z,20.26
2023-05-10T09:07:15.105Z,20.84
2023-05-10T09:09:43.224Z,21.34
2023-05-10T09:12:12.619Z,21.65
2023-05-10T09:14:41.460Z,22.08
2023-05-10T09:17:09.674Z,22.79
2023-05-10T09:19:39.044Z,23.25
2023-05-10T09:22:06.937Z,24.21
2023-05-10T09:24:35.054Z,24.16
2023-05-10T09:27:03.833Z,24.01
2023-05-10T09:29:41.575Z,23.64
2023-05-10T09:32:09.534Z,24.50
2023-05-10T09:34:41.195Z,24.15
2023-05-10T09:37:09.293Z,24.60
2023-05-10T09:39:38.500Z,24.81
2023-05-10T09:42:08.540Z,24.93
2023-05-10T09:44:37.032Z,24.66
2023-05-10T09:47:05.543Z,24.49
2023-05-10T09:49:34.289Z,24.92
2023-05-10T09:52:04.898Z,25.65
2023-05-10T09:54:33.755Z,26.20
2023-05-10T09:57:01.948Z,26.38
2023-05-10T09:59:31.511Z,26.14
2023-05-10T10:02:01.623Z,26.65
2023-05-10T10:04:30.272Z,26.84
2023-05-10T10:07:03.741Z,25.29
2023-05-10T10:09:32.449Z,25.40
2023-05-10T10:12:01.676Z,25.51
2023-05-10T10:14:30.767Z,25.59
2023-05-10T10:19:30.261Z,26.83
2023-05-10T10:21:58.271Z,27.24
2023-05-10T10:24:27.643Z,27.04
2023-05-10T10:26:59.370Z,27.39
2023-05-10T10:29:35.888Z,27.27
2023-05-10T10:32:14.241Z,28.56
2023-05-10T10:34:42.670Z,26.82
2023-05-10T10:37:10.681Z,26.84
2023-05-10T10:39:40.320Z,27.16
2023-05-10T10:42:08.242Z,27.08
2023-05-10T10:44:40.333Z,27.59
2023-05-10T10:47:30.015Z,27.20
2023-05-10T10:50:09.019Z,27.33
2023-05-10T10:52:38.640Z,27.50
2023-05-10T10:55:10.288Z,27.66
2023-05-10T10:57:52.904Z,27.42
2023-05-10T11:00:26.301Z,25.98
2023-05-10T11:02:56.049Z,27.69
2023-05-10T11:05:38.973Z,27.21
2023-05-10T11:08:22.825Z,26.64
2023-05-10T11:11:08.895Z,26.86
2023-05-10T11:13:40.692Z,27.24
2023-05-10T11:16:19.668Z,27.93
2023-05-10T11:18:55.932Z,27.48
2023-05-10T11:21:24.258Z,28.04
2023-05-10T11:23:57.290Z,27.51
2023-05-10T11:26:27.558Z,26.63
2023-05-10T11:28:57.365Z,27.50
2023-05-10T11:31:27.605Z,27.89
2023-05-10T11:33:57.780Z,28.17
2023-05-10T11:36:28.240Z,27.80
2023-05-10T11:38:56.702Z,28.25
2023-05-10T11:41:27.058Z,27.82
2023-05-10T11:43:56.495Z,27.76
2023-05-10T11:46:25.706Z,27.83
2023-05-10T11:48:55.103Z,27.98
2023-05-10T11:51:23.846Z,27.40
2023-05-10T11:53:52.833Z,27.96
2023-05-10T11:56:21.747Z,28.16
2023-05-10T11:58:57.686Z,27.96
2023-05-10T12:01:26.859Z,27.79
2023-05-10T12:03:56.391Z,28.19
2023-05-10T12:06:24.817Z,27.32
2023-05-10T12:08:54.800Z,27.97
2023-05-10T12:11:28.162Z,27.27
2023-05-10T12:13:58.163Z,26.74
2023-05-10T12:16:27.569Z,27.03
2023-05-10T12:19:00.047Z,27.51
2023-05-10T12:21:31.404Z,26.63
2023-05-10T12:24:03.531Z,26.45
2023-05-10T12:26:31.640Z,26.47
2023-05-10T12:29:17.689Z,26.93
2023-05-10T12:31:53.801Z,26.94
2023-05-10T12:34:26.374Z,27.16
2023-05-10T12:36:55.474Z,27.36
2023-05-10T12:39:23.768Z,27.06
2023-05-10T12:41:52.391Z,27.17
2023-05-10T12:44:21.648Z,27.67
2023-05-10T12:46:49.811Z,26.51
2023-05-10T12:49:17.811Z,26.60
2023-05-10T12:51:45.754Z,27.28
2023-05-10T12:54:13.693Z,27.04
2023-05-10T12:56:41.848Z,27.27
2023-05-10T12:59:09.760Z,27.39
2023-05-10T13:01:39.344Z,27.44
2023-05-10T13:04:07.444Z,26.98
2023-05-10T13:06:36.034Z,27.19
2023-05-10T13:09:04.489Z,27.15
2023-05-10T13:11:32.457Z,27.07
2023-05-10T13:14:01.246Z,26.86
2023-05-10T13:16:29.172Z,26.26
2023-05-10T13:18:59.513Z,26.48
2023-05-10T13:21:27.644Z,26.74
2023-05-10T13:23:55.679Z,26.81
2023-05-10T13:26:23.596Z,26.72
2023-05-10T13:28:52.789Z,26.74
2023-05-10T13:31:21.700Z,27.04
2023-05-10T13:33:49.621Z,26.63
2023-05-10T13:36:19.263Z,27.27
2023-05-10T13:38:49.957Z,27.03
2023-05-10T13:41:18.652Z,26.50
2023-05-10T13:43:46.688Z,26.99
2023-05-10T13:46:14.611Z,26.86
2023-05-10T13:48:42.463Z,26.93
2023-05-10T13:51:10.481Z,27.04
2023-05-10T13:53:39.769Z,26.96
2023-05-10T13:56:08.168Z,27.25
2023-05-10T13:58:36.766Z,27.02
2023-05-10T14:01:05.839Z,26.66
2023-05-10T14:03:34.100Z,26.82
2023-05-10T14:06:02.331Z,26.56
2023-05-10T14:08:30.245Z,26.74
2023-05-10T14:10:59.505Z,26.16
2023-05-10T14:13:27.359Z,25.97
2023-05-10T14:15:56.232Z,26.28
2023-05-10T14:18:24.332Z,26.63
2023-05-10T14:20:52.273Z,26.81
2023-05-10T14:23:20.871Z,26.74
2023-05-10T14:25:48.732Z,27.24
2023-05-10T14:28:18.263Z,26.28
2023-05-10T14:30:46.295Z,26.20
2023-05-10T14:33:14.312Z,26.74
2023-05-10T14:35:42.433Z,26.99
2023-05-10T14:38:11.711Z,26.62
2023-05-10T14:40:39.538Z,26.08
2023-05-10T14:43:07.568Z,26.32
2023-05-10T14:45:37.019Z,27.07
2023-05-10T14:48:05.634Z,27.11
2023-05-10T14:50:36.980Z,26.79
2023-05-10T14:53:05.339Z,26.29
2023-05-10T14:55:33.690Z,25.88
2023-05-10T14:58:01.615Z,26.27
2023-05-10T15:00:31.341Z,25.63
2023-05-10T15:03:01.181Z,25.98
2023-05-10T15:05:29.557Z,25.94
2023-05-10T15:07:57.849Z,26.25
2023-05-10T15:10:26.265Z,26.04
2023-05-10T15:12:54.166Z,25.68
2023-05-10T15:15:22.137Z,26.02
2023-05-10T15:17:50.150Z,25.80
2023-05-10T15:20:19.594Z,25.65
2023-05-10T15:22:47.477Z,25.08
2023-05-10T15:25:16.984Z,25.63
2023-05-10T15:27:45.596Z,25.32
2023-05-10T15:30:14.257Z,25.48
2023-05-10T15:32:42.203Z,25.22
2023-05-10T15:35:11.141Z,25.59
2023-05-10T15:37:40.570Z,25.69
2023-05-10T15:40:09.199Z,25.61
2023-05-10T15:42:37.100Z,25.39
2023-05-10T15:45:05.947Z,25.54
2023-05-10T15:47:34.179Z,25.81
2023-05-10T15:50:02.168Z,25.83
2023-05-10T15:52:30.064Z,26.25
2023-05-10T15:54:59.292Z,25.52
2023-05-10T15:57:27.233Z,25.32
2023-05-10T15:59:56.292Z,24.97
2023-05-10T16:02:24.470Z,25.05
2023-05-10T16:04:52.709Z,25.06
2023-05-10T16:07:20.661Z,25.24
2023-05-10T16:09:49.443Z,24.96
2023-05-10T16:12:18.872Z,24.90
2023-05-10T16:14:47.799Z,25.10
2023-05-10T16:17:16.346Z,25.20
2023-05-10T16:19:44.260Z,25.15
2023-05-10T16:22:12.208Z,24.81
2023-05-10T16:24:40.083Z,25.04
2023-05-10T16:27:08.043Z,25.11
2023-05-10T16:29:37.295Z,25.24
2023-05-10T16:32:05.224Z,24.97
2023-05-10T16:34:33.067Z,25.16
2023-05-10T16:37:01.061Z,25.00
2023-05-10T16:39:29.230Z,25.06
2023-05-10T16:41:57.106Z,24.89
2023-05-10T16:44:25.924Z,24.72
2023-05-10T16:46:56.021Z,24.67
2023-05-10T16:49:26.099Z,24.61
2023-05-10T16:51:54.259Z,24.15
2023-05-10T16:54:22.798Z,24.31
2023-05-10T16:56:50.798Z,24.14
2023-05-10T16:59:18.711Z,23.95
2023-05-10T17:01:47.109Z,23.98
2023-05-10T17:04:17.790Z,23.92
2023-05-10T17:06:45.715Z,23.91
2023-05-10T17:09:13.921Z,23.93
2023-05-10T17:11:41.988Z,24.11
2023-05-10T17:14:10.136Z,23.77
2023-05-10T17:16:38.109Z,23.66
2023-05-10T17:19:06.079Z,23.73
2023-05-10T17:21:35.394Z,23.44
2023-05-10T17:24:03.274Z,23.51
2023-05-10T17:26:31.189Z,23.41
2023-05-10T17:28:59.376Z,23.41
2023-05-10T17:31:27.704Z,23.20
2023-05-10T17:33:55.616Z,23.54
2023-05-10T17:36:23.487Z,23.11
2023-05-10T17:38:52.814Z,23.15
2023-05-10T17:41:21.765Z,23.01
2023-05-10T17:43:49.615Z,22.99
2023-05-10T17:46:17.975Z,23.01
2023-05-10T17:48:45.985Z,22.98
2023-05-10T17:51:13.895Z,22.78
2023-05-10T17:53:42.370Z,22.67
2023-05-10T17:56:11.552Z,22.78
2023-05-10T17:58:39.453Z,22.59
2023-05-10T18:01:07.443Z,22.66
2023-05-10T18:03:35.988Z,22.85
2023-05-10T18:06:05.169Z,22.81
2023-05-10T18:08:33.800Z,22.75
2023-05-10T18:11:01.687Z,22.80
2023-05-10T18:13:30.942Z,22.43
2023-05-10T18:15:59.393Z,22.52
2023-05-10T18:18:27.352Z,22.33
2023-05-10T18:20:57.645Z,22.31
2023-05-10T18:23:26.322Z,22.20
2023-05-10T18:25:54.380Z,22.32
2023-05-10T18:28:22.301Z,22.23
2023-05-10T18:30:52.197Z,22.23
2023-05-10T18:33:20.133Z,22.06
2023-05-10T18:35:48.022Z,22.06
2023-05-10T18:38:15.916Z,21.92
2023-05-10T18:40:44.044Z,21.98
2023-05-10T18:43:11.910Z,22.08
2023-05-10T18:45:40.044Z,22.10
2023-05-10T18:48:09.295Z,22.02
2023-05-10T18:50:37.191Z,22.00
2023-05-10T18:53:05.040Z,21.90
2023-05-10T18:55:32.933Z,22.00
2023-05-10T18:58:00.908Z,21.77
2023-05-10T19:00:28.783Z,21.67
2023-05-10T19:02:56.757Z,21.80
2023-05-10T19:05:29.945Z,21.80
2023-05-10T19:07:57.923Z,21.82
2023-05-10T19:10:25.819Z,21.74
2023-05-10T19:12:53.712Z,21.62
2023-05-10T19:15:22.145Z,21.68
2023-05-10T19:17:51.617Z,21.68
2023-05-10T19:20:19.780Z,21.62
2023-05-10T19:25:24.169Z,21.65
2023-05-10T19:27:52.656Z,21.64
2023-05-10T19:30:20.582Z,21.63
2023-05-10T19:32:48.497Z,21.60
2023-05-10T19:35:16.827Z,21.63
2023-05-10T19:37:46.050Z,21.48
2023-05-10T19:40:17.489Z,21.46
2023-05-10T19:42:45.513Z,21.36
2023-05-10T19:45:15.465Z,21.31
2023-05-10T19:47:43.770Z,21.27
2023-05-10T19:50:12.915Z,21.16
2023-05-10T19:52:41.252Z,21.05
2023-05-10T19:55:09.807Z,21.04
2023-05-10T19:57:39.215Z,20.95
2023-05-10T20:00:08.342Z,20.86
2023-05-10T20:02:39.143Z,20.83
2023-05-10T20:05:07.852Z,20.73
2023-05-10T20:07:37.964Z,20.75
2023-05-10T20:10:06.498Z,20.62
2023-05-10T20:12:35.433Z,20.68
2023-05-10T20:15:05.305Z,20.68
2023-05-10T20:17:33.442Z,20.58
2023-05-10T20:20:01.366Z,20.51
2023-05-10T20:22:29.229Z,20.54
2023-05-10T20:24:58.476Z,20.54
2023-05-10T20:27:26.326Z,20.51
2023-05-10T20:29:54.216Z,20.46
2023-05-10T20:32:23.520Z,20.51
2023-05-10T20:34:51.405Z,20.45
2023-05-10T20:37:19.345Z,20.48
2023-05-10T20:39:49.812Z,20.34
2023-05-10T20:42:18.270Z,20.31
2023-05-10T20:44:46.093Z,20.33
2023-05-10T20:47:15.464Z,20.36
2023-05-10T20:49:45.011Z,20.31
2023-05-10T20:52:12.902Z,20.30
2023-05-10T20:54:40.910Z,20.10
2023-05-10T20:57:08.770Z,20.17
2023-05-10T20:59:36.753Z,20.10
2023-05-10T21:02:04.635Z,20.07
2023-05-10T21:04:32.578Z,20.05
2023-05-10T21:07:02.060Z,20.01
2023-05-10T21:09:30.117Z,19.93
2023-05-10T21:11:59.029Z,20.00
2023-05-10T21:14:26.913Z,19.98
2023-05-10T21:16:54.827Z,20.00
2023-05-10T21:19:22.725Z,19.92
2023-05-10T21:21:50.730Z,19.86
2023-05-10T21:24:19.990Z,19.88
2023-05-10T21:26:47.810Z,19.75
2023-05-10T21:29:15.689Z,19.82
2023-05-10T21:31:43.663Z,19.86
2023-05-10T21:34:11.520Z,19.83
2023-05-10T21:36:39.397Z,19.81
2023-05-10T21:39:07.453Z,19.80
2023-05-10T21:41:37.159Z,19.85
2023-05-10T21:44:05.375Z,19.83
2023-05-10T21:46:33.192Z,19.84
2023-05-10T21:49:01.076Z,19.87
2023-05-10T21:51:30.054Z,19.84
2023-05-10T21:53:57.939Z,19.79
2023-05-10T21:56:25.909Z,19.75
2023-05-10T21:58:55.144Z,19.82
2023-05-10T22:01:23.074Z,19.77
2023-05-10T22:03:51.044Z,19.80
2023-05-10T22:06:18.938Z,19.94
2023-05-10T22:08:46.834Z,19.94
2023-05-10T22:11:14.752Z,19.88
2023-05-10T22:13:42.589Z,19.90
2023-05-10T22:16:11.896Z,19.89
2023-05-10T22:18:39.845Z,19.90
2023-05-10T22:21:09.919Z,19.84
2023-05-10T22:23:37.797Z,19.91
2023-05-10T22:26:05.959Z,19.93
2023-05-10T22:28:33.991Z,19.81
2023-05-10T22:31:01.869Z,19.74
2023-05-10T22:33:31.166Z,19.79
2023-05-10T22:35:59.066Z,19.88
2023-05-10T22:38:26.968Z,19.93
2023-05-10T22:40:54.836Z,19.94
2023-05-10T22:43:22.750Z,19.93
2023-05-10T22:45:50.621Z,19.96
2023-05-10T22:48:18.594Z,19.96
2023-05-10T22:50:47.823Z,20.01
2023-05-10T22:53:15.706Z,19.92
2023-05-10T22:55:43.607Z,19.96
2023-05-10T22:58:11.682Z,19.92
2023-05-10T23:00:40.826Z,19.83
2023-05-10T23:03:08.765Z,19.87
2023-05-10T23:05:36.630Z,19.85
2023-05-10T23:08:05.961Z,19.78
2023-05-10T23:10:33.829Z,19.65
2023-05-10T23:13:01.692Z,19.63
2023-05-10T23:15:29.703Z,19.70
2023-05-10T23:18:00.918Z,19.66
2023-05-10T23:20:28.917Z,19.61
2023-05-10T23:22:56.808Z,19.50
2023-05-10T23:25:26.066Z,19.47
2023-05-10T23:27:53.977Z,19.39
2023-05-10T23:30:21.933Z,19.26
2023-05-10T23:32:49.914Z,19.20
2023-05-10T23:35:18.015Z,19.19
2023-05-10T23:37:45.889Z,19.26
2023-05-10T23:40:14.380Z,19.21
2023-05-10T23:42:43.619Z,19.22
2023-05-10T23:45:12.312Z,19.17
2023-05-10T23:47:40.288Z,19.23
2023-05-10T23:50:09.287Z,19.08
2023-05-10T23:52:37.213Z,19.07
2023-05-10T23:55:05.270Z,18.86
2023-05-10T23:57:33.123Z,18.86
